Time;durP1;ratioP1;P1;durP2;ratioP2;P2;SDS_P1;SDS_P2;PMS_P1;PMS_P2;Temp;Humidity;BMP_temperature;BMP_pressure;BME280_temperature;BME280_humidity;BME280_pressure;Samples;Min_cycle;Max_cycle;Signal;HPM_P1;HPM_P2
2024/01/22 00:02:02;;;;;;;46.50;27.35;;;;;;;;;;5054261;28;20021;-48
2024/01/22 00:04:28;;;;;;;45.03;28.40;;;;;;;;;;5053972;28;20411;-50
2024/01/22 00:06:54;;;;;;;46.03;28.20;;;;;;;;;;5053903;28;20112;-48
2024/01/22 00:09:21;;;;;;;49.57;29.17;;;;;;;;;;5051906;28;20147;-48
2024/01/22 00:11:47;;;;;;;40.75;26.02;;;;;;;;;;5029752;28;20473;-50
2024/01/22 00:14:13;;;;;;;46.05;29.45;;;;;;;;;;5053710;28;20051;-52
2024/01/22 00:16:40;;;;;;;46.25;28.05;;;;;;;;;;5035932;28;20068;-48
2024/01/22 00:19:07;;;;;;;45.72;26.67;;;;;;;;;;5053976;28;20044;-49
2024/01/22 00:21:33;;;;;;;44.63;28.85;;;;;;;;;;5052137;28;20096;-50
2024/01/22 00:24:00;;;;;;;51.40;30.42;;;;;;;;;;5053723;28;20037;-49
2024/01/22 00:26:26;;;;;;;50.70;29.77;;;;;;;;;;5035752;28;20032;-48
2024/01/22 00:28:52;;;;;;;52.40;30.30;;;;;;;;;;5035634;28;20064;-48
2024/01/22 00:31:18;;;;;;;52.97;31.30;;;;;;;;;;5053554;28;20123;-49
2024/01/22 00:33:45;;;;;;;48.67;30.20;;;;;;;;;;5052400;28;20450;-48
2024/01/22 00:36:14;;;;;;;47.13;29.27;;;;;;;;;;5053457;28;20090;-48
2024/01/22 00:38:41;;;;;;;51.83;29.85;;;;;;;;;;5053342;28;20429;-50
2024/01/22 00:41:08;;;;;;;47.33;29.33;;;;;;;;;;5053343;28;20074;-48
2024/01/22 00:43:34;;;;;;;48.60;30.73;;;;;;;;;;5034292;28;20025;-48
2024/01/22 00:46:01;;;;;;;41.33;28.85;;;;;;;;;;5053173;28;20025;-48
2024/01/22 00:48:27;;;;;;;;;;;;;;;;;;5052801;28;20035;-51
2024/01/22 00:50:54;;;;;;;46.45;27.30;;;;;;;;;;5053210;28;19909;-51
2024/01/22 00:53:20;;;;;;;47.80;27.40;;;;;;;;;;5052922;28;20059;-50
2024/01/22 00:55:46;;;;;;;41.10;27.27;;;;;;;;;;5053053;28;20299;-48
2024/01/22 00:58:12;;;;;;;46.05;28.55;;;;;;;;;;5053237;28;20482;-48
2024/01/22 01:00:38;;;;;;;49.57;31.17;;;;;;;;;;5053010;28;20041;-49
2024/01/22 01:03:05;;;;;;;46.60;27.87;;;;;;;;;;5052943;28;20303;-49
2024/01/22 01:05:31;;;;;;;49.97;30.20;;;;;;;;;;5053032;28;20267;-48
2024/01/22 01:07:57;;;;;;;53.15;29.55;;;;;;;;;;5052795;28;20504;-48
2024/01/22 01:10:23;;;;;;;47.40;31.10;;;;;;;;;;5052635;28;20033;-49
2024/01/22 01:12:49;;;;;;;49.57;30.07;;;;;;;;;;5052685;28;20056;-48
2024/01/22 01:15:16;;;;;;;49.23;30.67;;;;;;;;;;5052574;28;20065;-50
2024/01/22 01:17:43;;;;;;;56.97;34.05;;;;;;;;;;5052528;28;20275;-48
2024/01/22 01:20:10;;;;;;;60.13;30.83;;;;;;;;;;5035109;28;20055;-49
2024/01/22 01:22:36;;;;;;;45.90;29.58;;;;;;;;;;5052773;28;20479;-50
2024/01/22 01:25:02;;;;;;;49.77;29.90;;;;;;;;;;5051439;28;20104;-50
2024/01/22 01:27:29;;;;;;;57.83;32.90;;;;;;;;;;5052823;28;20051;-49
2024/01/22 01:29:55;;;;;;;55.23;31.73;;;;;;;;;;5034493;28;20025;-48
2024/01/22 01:32:21;;;;;;;52.05;31.25;;;;;;;;;;5052363;28;20029;-49
2024/01/22 01:34:47;;;;;;;47.63;29.33;;;;;;;;;;5052734;28;20025;-48
2024/01/22 01:37:14;;;;;;;55.85;32.60;;;;;;;;;;5038688;28;20791;-48
2024/01/22 01:39:40;;;;;;;59.57;34.37;;;;;;;;;;5052549;28;20033;-48
2024/01/22 01:42:06;;;;;;;57.28;32.53;;;;;;;;;;5052516;28;20272;-50
2024/01/22 01:44:46;;;;;;;48.00;29.93;;;;;;;;;;5052287;28;20081;-50
2024/01/22 01:47:12;;;;;;;49.67;30.80;;;;;;;;;;5052015;28;20072;-49
2024/01/22 01:49:38;;;;;;;48.28;31.27;;;;;;;;;;5052432;28;20032;-49
2024/01/22 01:52:04;;;;;;;43.93;30.10;;;;;;;;;;5034110;28;20044;-51
2024/01/22 01:54:31;;;;;;;54.15;31.42;;;;;;;;;;5051382;28;20028;-51
2024/01/22 01:56:57;;;;;;;49.85;32.38;;;;;;;;;;5052190;28;20103;-51
2024/01/22 01:59:24;;;;;;;50.27;31.30;;;;;;;;;;5051175;28;20087;-53
2024/01/22 02:01:50;;;;;;;50.83;30.85;;;;;;;;;;5051582;28;20056;-48
2024/01/22 02:04:16;;;;;;;56.13;32.37;;;;;;;;;;5051504;28;20029;-49
2024/01/22 02:06:42;;;;;;;54.40;31.23;;;;;;;;;;5051761;28;20032;-50
2024/01/22 02:09:09;;;;;;;50.70;30.60;;;;;;;;;;5051933;28;20403;-51
2024/01/22 02:11:35;;;;;;;48.97;31.00;;;;;;;;;;5052536;28;20033;-51
2024/01/22 02:14:01;;;;;;;53.70;31.33;;;;;;;;;;5051449;28;20263;-49
2024/01/22 02:16:27;;;;;;;51.27;31.23;;;;;;;;;;5051657;28;20029;-52
2024/01/22 02:18:53;;;;;;;36.67;25.30;;;;;;;;;;5051849;28;20021;-49
2024/01/22 02:21:19;;;;;;;48.37;30.53;;;;;;;;;;5051703;28;20465;-51
2024/01/22 02:23:46;;;;;;;54.95;32.08;;;;;;;;;;5051064;28;20256;-52
2024/01/22 02:26:12;;;;;;;53.40;32.85;;;;;;;;;;5051279;28;20438;-48
2024/01/22 02:28:38;;;;;;;47.07;30.40;;;;;;;;;;5051445;28;20033;-48
2024/01/22 02:31:07;;;;;;;58.53;31.93;;;;;;;;;;5055189;28;20033;-49
2024/01/22 02:33:33;;;;;;;50.15;31.23;;;;;;;;;;5051288;28;20033;-52
2024/01/22 02:35:59;;;;;;;46.13;30.13;;;;;;;;;;5051430;28;20090;-48
2024/01/22 02:38:25;;;;;;;50.90;31.03;;;;;;;;;;5051961;28;20279;-48
2024/01/22 02:40:51;;;;;;;47.97;30.00;;;;;;;;;;5051363;28;20020;-51
2024/01/22 02:43:18;;;;;;;55.70;33.93;;;;;;;;;;5050967;28;20049;-48
2024/01/22 02:45:44;;;;;;;49.35;29.98;;;;;;;;;;5050890;28;20328;-48
2024/01/22 02:48:10;;;;;;;50.58;31.95;;;;;;;;;;5051466;28;20028;-50
2024/01/22 02:50:36;;;;;;;52.15;30.40;;;;;;;;;;5051422;28;20041;-51
2024/01/22 02:53:02;;;;;;;50.60;30.73;;;;;;;;;;5051245;28;20029;-49
2024/01/22 02:55:29;;;;;;;47.53;29.03;;;;;;;;;;5051208;28;20048;-49
2024/01/22 02:57:55;;;;;;;49.00;31.10;;;;;;;;;;5050910;28;20280;-50
2024/01/22 03:00:21;;;;;;;53.13;30.63;;;;;;;;;;5051347;28;20029;-49
2024/01/22 03:02:47;;;;;;;48.33;31.17;;;;;;;;;;5051245;28;20021;-48
2024/01/22 03:05:14;;;;;;;51.77;32.33;;;;;;;;;;5033385;28;20032;-48
2024/01/22 03:07:40;;;;;;;46.55;31.35;;;;;;;;;;5054528;28;20263;-50
2024/01/22 03:10:06;;;;;;;52.37;31.47;;;;;;;;;;5054868;28;20288;-48
2024/01/22 03:12:32;;;;;;;46.17;28.90;;;;;;;;;;5036993;28;20269;-50
2024/01/22 03:14:59;;;;;;;49.47;29.60;;;;;;;;;;5037154;28;20032;-48
2024/01/22 03:17:25;;;;;;;48.38;29.48;;;;;;;;;;5036925;28;20270;-50
2024/01/22 03:19:51;;;;;;;50.47;30.70;;;;;;;;;;5055183;28;20033;-49
2024/01/22 03:22:17;;;;;;;54.05;30.60;;;;;;;;;;5054795;28;20364;-47
2024/01/22 03:24:46;;;;;;;49.35;30.02;;;;;;;;;;5053334;28;20453;-47
2024/01/22 03:27:12;;;;;;;44.47;29.95;;;;;;;;;;5053894;28;20048;-48
2024/01/22 03:29:38;;;;;;;52.92;31.85;;;;;;;;;;5054964;28;20200;-49
2024/01/22 03:32:05;;;;;;;45.67;30.00;;;;;;;;;;5054610;28;20071;-48
2024/01/22 03:34:31;;;;;;;54.13;30.15;;;;;;;;;;5054864;28;20422;-50
2024/01/22 03:36:57;;;;;;;49.93;29.53;;;;;;;;;;5054752;28;20029;-49
2024/01/22 03:39:23;;;;;;;44.03;27.92;;;;;;;;;;5054364;28;20361;-49
2024/01/22 03:41:50;;;;;;;46.17;28.40;;;;;;;;;;5054459;28;20051;-48
2024/01/22 03:44:16;;;;;;;50.97;30.08;;;;;;;;;;5036460;28;20259;-48
2024/01/22 03:46:42;;;;;;;46.78;27.58;;;;;;;;;;5054387;28;20057;-52
2024/01/22 03:49:08;;;;;;;43.70;27.77;;;;;;;;;;5054437;28;20033;-48
2024/01/22 03:51:34;;;;;;;44.37;29.37;;;;;;;;;;5054202;28;20025;-48
2024/01/22 03:54:00;;;;;;;46.40;28.23;;;;;;;;;;5054127;28;20267;-50
2024/01/22 03:56:27;;;;;;;47.07;26.90;;;;;;;;;;5036263;28;20029;-51
2024/01/22 03:58:53;;;;;;;45.87;27.40;;;;;;;;;;5059487;28;20108;-48
2024/01/22 04:01:22;;;;;;;43.47;26.38;;;;;;;;;;5054154;28;20271;-49
2024/01/22 04:03:48;;;;;;;42.20;28.52;;;;;;;;;;5053788;28;20505;-48
2024/01/22 04:06:14;;;;;;;44.30;26.63;;;;;;;;;;5036239;28;20029;-48
2024/01/22 04:08:41;;;;;;;40.43;26.50;;;;;;;;;;5053584;28;20025;-48
2024/01/22 04:11:07;;;;;;;41.30;27.03;;;;;;;;;;5053598;28;20380;-49
2024/01/22 04:13:33;;;;;;;42.33;26.27;;;;;;;;;;5053846;28;20320;-48
2024/01/22 04:15:59;;;;;;;41.40;26.95;;;;;;;;;;5054533;28;20507;-47
2024/01/22 04:18:25;;;;;;;38.13;23.93;;;;;;;;;;5053781;28;20032;-51
2024/01/22 04:20:52;;;;;;;42.63;23.90;;;;;;;;;;5054204;28;20040;-49
2024/01/22 04:23:18;;;;;;;37.45;23.30;;;;;;;;;;5036085;28;20295;-48
2024/01/22 04:25:44;;;;;;;36.75;22.33;;;;;;;;;;5053709;28;20537;-47
2024/01/22 04:28:10;;;;;;;37.83;22.47;;;;;;;;;;5053866;28;20036;-51
2024/01/22 04:30:37;;;;;;;36.63;22.65;;;;;;;;;;5035611;28;20120;-48
2024/01/22 04:33:03;;;;;;;34.77;21.67;;;;;;;;;;5063098;28;20028;-49
2024/01/22 04:35:29;;;;;;;33.70;21.83;;;;;;;;;;5053529;28;20123;-49
2024/01/22 04:37:55;;;;;;;37.77;21.10;;;;;;;;;;5035708;28;20287;-48
2024/01/22 04:40:21;;;;;;;38.30;22.63;;;;;;;;;;5035304;28;20025;-48
2024/01/22 04:42:48;;;;;;;36.27;21.20;;;;;;;;;;5053697;28;20021;-47
2024/01/22 04:45:14;;;;;;;38.13;20.10;;;;;;;;;;5053068;28;20025;-48
2024/01/22 04:47:40;;;;;;;34.53;19.92;;;;;;;;;;5080488;22;20049;-50
2024/01/22 04:50:07;;;;;;;34.63;20.70;;;;;;;;;;5032991;28;20037;-52
2024/01/22 04:52:33;;;;;;;35.30;19.52;;;;;;;;;;5033212;28;20578;-48
2024/01/22 04:54:59;;;;;;;31.97;21.63;;;;;;;;;;5032968;28;20037;-46
2024/01/22 04:57:25;;;;;;;30.67;19.70;;;;;;;;;;5033960;28;20039;-49
2024/01/22 04:59:51;;;;;;;31.60;21.50;;;;;;;;;;5033408;28;20363;-48
2024/01/22 05:02:22;;;;;;;34.23;21.17;;;;;;;;;;5032267;28;20029;-49
2024/01/22 05:04:49;;;;;;;35.47;21.50;;;;;;;;;;5031988;28;20042;-51
2024/01/22 05:07:15;;;;;;;36.58;22.67;;;;;;;;;;5033338;28;20025;-48
2024/01/22 05:09:41;;;;;;;38.30;21.00;;;;;;;;;;5033417;28;20032;-48
2024/01/22 05:12:08;;;;;;;37.53;24.80;;;;;;;;;;5033363;28;20403;-48
2024/01/22 05:14:35;;;;;;;34.77;20.80;;;;;;;;;;5033571;28;20260;-48
2024/01/22 05:17:02;;;;;;;37.08;21.52;;;;;;;;;;5042915;28;20500;-50
2024/01/22 05:19:28;;;;;;;33.45;21.50;;;;;;;;;;5033000;28;20033;-48
2024/01/22 05:21:55;;;;;;;36.70;22.00;;;;;;;;;;5043168;28;20048;-49
2024/01/22 05:24:21;;;;;;;30.40;20.10;;;;;;;;;;5034796;28;20025;-51
2024/01/22 05:26:47;;;;;;;41.07;20.70;;;;;;;;;;5031778;28;20079;-52
2024/01/22 05:29:14;;;;;;;33.90;21.07;;;;;;;;;;5032462;28;20032;-52
2024/01/22 05:31:40;;;;;;;30.67;19.90;;;;;;;;;;5032818;28;20025;-48
2024/01/22 05:34:07;;;;;;;34.45;20.33;;;;;;;;;;5032605;28;20033;-49
2024/01/22 05:36:34;;;;;;;34.50;20.37;;;;;;;;;;5032871;28;20565;-50
2024/01/22 05:39:00;;;;;;;41.35;20.42;;;;;;;;;;5032782;28;20039;-48
2024/01/22 05:41:26;;;;;;;40.53;23.43;;;;;;;;;;5032802;28;20026;-49
2024/01/22 05:43:52;;;;;;;37.05;20.90;;;;;;;;;;5031940;28;20255;-48
2024/01/22 05:46:19;;;;;;;31.70;19.40;;;;;;;;;;5030874;28;20448;-48
2024/01/22 05:48:45;;;;;;;34.80;21.20;;;;;;;;;;5032582;28;20392;-48
2024/01/22 05:51:11;;;;;;;32.83;19.93;;;;;;;;;;5032454;28;20044;-47
2024/01/22 05:53:38;;;;;;;32.67;19.70;;;;;;;;;;5032374;28;20764;-48
2024/01/22 05:56:05;;;;;;;43.38;20.75;;;;;;;;;;5032446;28;20029;-48
2024/01/22 05:58:31;;;;;;;28.80;19.33;;;;;;;;;;5032414;28;20029;-48
2024/01/22 06:00:57;;;;;;;34.40;18.50;;;;;;;;;;5032270;28;20538;-51
2024/01/22 06:03:23;;;;;;;28.27;16.33;;;;;;;;;;5030956;28;20260;-48
2024/01/22 06:05:49;;;;;;;31.13;18.70;;;;;;;;;;5032281;28;20067;-48
2024/01/22 06:08:15;;;;;;;34.40;21.38;;;;;;;;;;5032239;28;20033;-48
2024/01/22 06:10:42;;;;;;;31.97;18.90;;;;;;;;;;5032262;28;20044;-54
2024/01/22 06:13:08;;;;;;;29.17;18.98;;;;;;;;;;5030869;28;20276;-53
2024/01/22 06:15:34;;;;;;;30.93;18.17;;;;;;;;;;5031594;28;20120;-51
2024/01/22 06:18:01;;;;;;;28.23;17.77;;;;;;;;;;5031885;28;20056;-51
2024/01/22 06:20:29;;;;;;;32.22;18.67;;;;;;;;;;5032081;28;20025;-48
2024/01/22 06:22:56;;;;;;;29.17;18.48;;;;;;;;;;5032181;28;20558;-48
2024/01/22 06:25:22;;;;;;;30.52;17.73;;;;;;;;;;5031842;28;20037;-52
2024/01/22 06:27:48;;;;;;;29.33;19.27;;;;;;;;;;5031875;28;20080;-53
2024/01/22 06:30:15;;;;;;;30.17;18.20;;;;;;;;;;5031688;28;20026;-51
2024/01/22 06:32:42;;;;;;;33.58;18.15;;;;;;;;;;5031942;28;20026;-50
2024/01/22 06:35:09;;;;;;;25.40;18.33;;;;;;;;;;5031714;28;20026;-53
2024/01/22 06:37:35;;;;;;;30.98;19.48;;;;;;;;;;5032327;28;20483;-51
2024/01/22 06:40:01;;;;;;;32.80;19.07;;;;;;;;;;5031911;28;20025;-48
2024/01/22 06:42:29;;;;;;;26.87;17.73;;;;;;;;;;5031845;28;20021;-50
2024/01/22 06:44:55;;;;;;;34.47;19.17;;;;;;;;;;5030057;28;20479;-52
2024/01/22 06:47:21;;;;;;;26.03;17.47;;;;;;;;;;5031250;28;20403;-48
2024/01/22 06:49:47;;;;;;;27.77;17.83;;;;;;;;;;5031770;28;20033;-48
2024/01/22 06:52:13;;;;;;;31.88;18.13;;;;;;;;;;5031733;28;20268;-49
2024/01/22 06:54:40;;;;;;;27.77;17.63;;;;;;;;;;5031543;28;20065;-48
2024/01/22 06:57:06;;;;;;;27.63;17.33;;;;;;;;;;5013826;28;20026;-47
2024/01/22 06:59:32;;;;;;;30.33;18.37;;;;;;;;;;5031324;28;20116;-49
2024/01/22 07:01:58;;;;;;;32.97;19.03;;;;;;;;;;5031593;28;20017;-49
2024/01/22 07:04:25;;;;;;;30.13;17.00;;;;;;;;;;5031375;28;20455;-49
2024/01/22 07:06:51;;;;;;;31.15;18.13;;;;;;;;;;5031551;28;20494;-52
2024/01/22 07:09:17;;;;;;;30.60;19.30;;;;;;;;;;5031522;28;20109;-48
2024/01/22 07:11:44;;;;;;;30.88;16.60;;;;;;;;;;5031484;28;20029;-52
2024/01/22 07:14:10;;;;;;;30.47;17.43;;;;;;;;;;5013058;28;20483;-47
2024/01/22 07:16:36;;;;;;;27.13;17.02;;;;;;;;;;5011628;28;20048;-48
2024/01/22 07:19:02;;;;;;;32.97;17.83;;;;;;;;;;5011787;28;20567;-50
2024/01/22 07:21:29;;;;;;;36.08;19.52;;;;;;;;;;5011804;28;20296;-47
2024/01/22 07:23:55;;;;;;;30.03;18.20;;;;;;;;;;4994026;28;20034;-51
2024/01/22 07:26:21;;;;;;;31.90;18.07;;;;;;;;;;5011454;28;20052;-53
2024/01/22 07:28:47;;;;;;;27.43;16.77;;;;;;;;;;5011550;28;20026;-53
2024/01/22 07:31:13;;;;;;;27.65;18.48;;;;;;;;;;5011455;28;20038;-49
2024/01/22 07:33:40;;;;;;;29.83;18.37;;;;;;;;;;5011397;28;20164;-51
2024/01/22 07:36:06;;;;;;;31.42;18.50;;;;;;;;;;5011443;28;20124;-48
2024/01/22 07:38:33;;;;;;;30.33;17.85;;;;;;;;;;4993840;28;20030;-48
2024/01/22 07:40:59;;;;;;;;;;;;;;;;;;5012093;28;20040;-50
2024/01/22 07:43:26;;;;;;;32.97;18.83;;;;;;;;;;5011270;28;19905;-47
2024/01/22 07:45:52;;;;;;;28.55;17.95;;;;;;;;;;5011259;28;20034;-47
2024/01/22 07:48:18;;;;;;;32.00;19.27;;;;;;;;;;5029863;28;20033;-46
2024/01/22 07:50:45;;;;;;;35.70;20.40;;;;;;;;;;5031149;28;20053;-48
2024/01/22 07:53:11;;;;;;;33.70;20.43;;;;;;;;;;5033411;28;20331;-49
2024/01/22 07:55:37;;;;;;;32.47;20.50;;;;;;;;;;5034489;28;20037;-49
2024/01/22 07:58:03;;;;;;;33.28;20.45;;;;;;;;;;5033305;28;20065;-54
2024/01/22 08:00:33;;;;;;;33.42;21.40;;;;;;;;;;5034480;28;20500;-48
2024/01/22 08:03:01;;;;;;;34.70;22.13;;;;;;;;;;5034578;28;20033;-48
2024/01/22 08:05:28;;;;;;;37.05;21.80;;;;;;;;;;5034448;28;20024;-46
2024/01/22 08:07:54;;;;;;;37.03;23.25;;;;;;;;;;5033377;28;20501;-51
2024/01/22 08:10:20;;;;;;;37.08;21.55;;;;;;;;;;5034662;28;20453;-50
2024/01/22 08:12:46;;;;;;;33.15;22.05;;;;;;;;;;5034437;28;20029;-52
2024/01/22 08:15:14;;;;;;;38.27;24.83;;;;;;;;;;5033962;28;20487;-50
2024/01/22 08:17:42;;;;;;;38.30;25.30;;;;;;;;;;5034224;28;20271;-53
2024/01/22 08:20:08;;;;;;;41.50;27.25;;;;;;;;;;5034387;28;20045;-55
2024/01/22 08:22:35;;;;;;;44.30;25.88;;;;;;;;;;5034519;28;20507;-49
2024/01/22 08:25:01;;;;;;;46.20;25.50;;;;;;;;;;5033943;28;20021;-52
2024/01/22 08:27:27;;;;;;;40.33;25.03;;;;;;;;;;5033777;28;20419;-47
2024/01/22 08:29:53;;;;;;;39.03;26.33;;;;;;;;;;5033850;28;20105;-50
2024/01/22 08:32:19;;;;;;;42.33;24.23;;;;;;;;;;5034313;28;20025;-55
2024/01/22 08:34:45;;;;;;;38.73;25.73;;;;;;;;;;5033977;28;20053;-53
2024/01/22 08:37:12;;;;;;;38.25;24.63;;;;;;;;;;5033980;28;20099;-49
2024/01/22 08:39:38;;;;;;;45.30;26.03;;;;;;;;;;5033804;28;20029;-49
2024/01/22 08:42:04;;;;;;;41.27;26.43;;;;;;;;;;5032719;28;20021;-48
2024/01/22 08:44:30;;;;;;;44.50;26.27;;;;;;;;;;5032081;28;20565;-52
2024/01/22 08:46:57;;;;;;;42.53;25.57;;;;;;;;;;5033594;28;20028;-55
2024/01/22 08:49:23;;;;;;;43.25;25.58;;;;;;;;;;5033781;28;20120;-51
2024/01/22 08:51:49;;;;;;;40.17;27.63;;;;;;;;;;5033703;28;20499;-48
2024/01/22 08:54:15;;;;;;;39.83;26.33;;;;;;;;;;5033598;28;20064;-48
2024/01/22 08:56:41;;;;;;;47.30;27.83;;;;;;;;;;5032476;28;20036;-50
2024/01/22 08:59:08;;;;;;;44.90;30.30;;;;;;;;;;5033564;28;20072;-47
2024/01/22 09:01:34;;;;;;;42.08;27.15;;;;;;;;;;5033792;28;20022;-50
2024/01/22 09:04:00;;;;;;;38.10;25.73;;;;;;;;;;5032411;28;20635;-50
2024/01/22 09:06:27;;;;;;;39.25;25.02;;;;;;;;;;5033361;28;20040;-48
2024/01/22 09:08:53;;;;;;;41.00;25.40;;;;;;;;;;5033402;28;20041;-53
2024/01/22 09:11:19;;;;;;;36.95;23.85;;;;;;;;;;5033305;28;20321;-51
2024/01/22 09:13:45;;;;;;;42.58;25.30;;;;;;;;;;5031876;28;20155;-51
2024/01/22 09:16:14;;;;;;;37.17;24.33;;;;;;;;;;5033182;28;20025;-50
2024/01/22 09:18:48;;;;;;;40.88;28.17;;;;;;;;;;5033102;28;20041;-48
2024/01/22 09:21:14;;;;;;;38.25;24.15;;;;;;;;;;5033124;28;20026;-50
2024/01/22 09:23:41;;;;;;;38.03;25.20;;;;;;;;;;5031825;28;20032;-50
2024/01/22 09:26:07;;;;;;;40.25;25.20;;;;;;;;;;5033076;28;20029;-55
2024/01/22 09:28:33;;;;;;;37.13;26.42;;;;;;;;;;5033029;28;20494;-51
2024/01/22 09:31:00;;;;;;;39.80;24.93;;;;;;;;;;5031745;28;20026;-52
2024/01/22 09:33:26;;;;;;;35.13;23.83;;;;;;;;;;5032718;28;20029;-48
2024/01/22 09:35:52;;;;;;;39.17;24.30;;;;;;;;;;5032949;28;20038;-51
2024/01/22 09:38:19;;;;;;;36.73;23.90;;;;;;;;;;5031321;28;20026;-48
2024/01/22 09:40:45;;;;;;;38.75;23.92;;;;;;;;;;5032668;28;20048;-49
2024/01/22 09:43:11;;;;;;;36.80;24.00;;;;;;;;;;5032669;28;20060;-47
2024/01/22 09:45:37;;;;;;;33.40;20.40;;;;;;;;;;5032469;28;20022;-51
2024/01/22 09:48:04;;;;;;;30.45;21.48;;;;;;;;;;5032470;28;20026;-48
2024/01/22 09:50:31;;;;;;;33.97;19.80;;;;;;;;;;5032689;28;20053;-47
2024/01/22 09:53:05;;;;;;;32.20;19.38;;;;;;;;;;5031325;28;20052;-47
2024/01/22 09:55:31;;;;;;;27.58;21.30;;;;;;;;;;5031139;28;20083;-50
2024/01/22 09:58:00;;;;;;;30.07;18.33;;;;;;;;;;5032299;28;20022;-49
2024/01/22 10:00:26;;;;;;;33.10;20.10;;;;;;;;;;5032317;28;20033;-53
2024/01/22 10:02:53;;;;;;;25.42;16.70;;;;;;;;;;5014594;28;20026;-53
2024/01/22 10:05:20;;;;;;;29.73;18.35;;;;;;;;;;5030972;28;20112;-51
2024/01/22 10:07:48;;;;;;;29.13;19.60;;;;;;;;;;5032228;28;20036;-51
2024/01/22 10:10:16;;;;;;;31.73;20.52;;;;;;;;;;5030839;28;20084;-50
2024/01/22 10:13:05;;;;;;;32.08;20.00;;;;;;;;;;5032165;28;20029;-51
2024/01/22 10:15:32;;;;;;;30.35;19.38;;;;;;;;;;5031670;28;20025;-48
2024/01/22 10:18:25;;;;;;;30.17;20.67;;;;;;;;;;5030639;28;20025;-52
2024/01/22 10:20:57;;;;;;;27.42;19.42;;;;;;;;;;5028737;28;20042;-48
2024/01/22 10:23:23;;;;;;;33.88;19.10;;;;;;;;;;5031973;28;20036;-51
2024/01/22 10:25:49;;;;;;;24.92;17.17;;;;;;;;;;5031936;28;20032;-47
2024/01/22 10:28:17;;;;;;;32.83;19.20;;;;;;;;;;5031790;28;20030;-48
2024/01/22 10:30:45;;;;;;;26.77;17.20;;;;;;;;;;5031921;28;20111;-49
2024/01/22 10:33:11;;;;;;;;;;;;;;;;;;5031081;28;20495;-51
2024/01/22 10:35:37;;;;;;;32.13;16.77;;;;;;;;;;5031635;28;19959;-50
2024/01/22 10:38:07;;;;;;;26.03;17.93;;;;;;;;;;5031600;28;20029;-48
2024/01/22 10:40:33;;;;;;;28.05;18.20;;;;;;;;;;5030500;28;20505;-49
2024/01/22 10:42:59;;;;;;;27.90;17.63;;;;;;;;;;5031714;28;20025;-50
2024/01/22 10:45:26;;;;;;;26.02;17.75;;;;;;;;;;5031521;28;20026;-48
2024/01/22 10:47:55;;;;;;;28.27;16.40;;;;;;;;;;5032002;28;20589;-47
2024/01/22 10:50:23;;;;;;;22.55;15.15;;;;;;;;;;5031543;28;20080;-47
2024/01/22 10:52:50;;;;;;;22.23;14.23;;;;;;;;;;5031916;28;20029;-47
2024/01/22 10:55:16;;;;;;;24.00;15.32;;;;;;;;;;5031419;28;20052;-52
2024/01/22 10:57:43;;;;;;;26.83;16.38;;;;;;;;;;5031493;28;20021;-49
2024/01/22 11:00:09;;;;;;;;;;;;;;;;;;5031925;28;20033;-48
2024/01/22 11:02:36;;;;;;;28.73;16.98;;;;;;;;;;5030205;28;19944;-48
2024/01/22 11:05:06;;;;;;;26.33;16.73;;;;;;;;;;5030059;28;20042;-51
2024/01/22 11:07:33;;;;;;;22.23;16.13;;;;;;;;;;5031409;28;20080;-50
2024/01/22 11:10:02;;;;;;;25.05;15.65;;;;;;;;;;5031482;28;20068;-47
2024/01/22 11:12:35;;;;;;;22.80;15.27;;;;;;;;;;5031298;28;20041;-47
2024/01/22 11:15:01;;;;;;;25.20;15.70;;;;;;;;;;5039536;28;20028;-48
2024/01/22 11:17:27;;;;;;;20.70;12.87;;;;;;;;;;5040438;28;20508;-48
2024/01/22 11:20:14;;;;;;;25.73;17.33;;;;;;;;;;5032789;28;20460;-51
2024/01/22 11:22:40;;;;;;;25.48;17.40;;;;;;;;;;5028803;28;20017;-50
2024/01/22 11:25:12;;;;;;;31.50;16.50;;;;;;;;;;5029083;28;20057;-49
2024/01/22 11:27:42;;;;;;;24.23;14.80;;;;;;;;;;5031068;28;20150;-50
2024/01/22 11:30:21;;;;;;;24.45;17.45;;;;;;;;;;5033618;28;20072;-50
2024/01/22 11:32:47;;;;;;;31.80;16.85;;;;;;;;;;5032626;28;20022;-50
2024/01/22 11:35:13;;;;;;;24.53;15.93;;;;;;;;;;5030727;28;20029;-49
2024/01/22 11:37:40;;;;;;;21.97;16.80;;;;;;;;;;5044396;28;20037;-53
2024/01/22 11:40:07;;;;;;;21.20;15.45;;;;;;;;;;5031543;28;20037;-49
2024/01/22 11:42:34;;;;;;;24.55;17.15;;;;;;;;;;5031731;28;20032;-56
2024/01/22 11:45:12;;;;;;;24.45;17.33;;;;;;;;;;5033151;28;20391;-50
2024/01/22 11:47:39;;;;;;;26.55;16.65;;;;;;;;;;5013206;28;20026;-49
2024/01/22 11:50:07;;;;;;;25.17;16.13;;;;;;;;;;5015910;28;20054;-49
2024/01/22 11:52:34;;;;;;;29.48;16.30;;;;;;;;;;5014682;28;20396;-51
2024/01/22 11:55:00;;;;;;;;;;;;;;;;;;5024508;28;20034;-60
2024/01/22 11:57:29;;;;;;;21.90;16.55;;;;;;;;;;5015144;28;19920;-50
2024/01/22 12:00:05;;;;;;;24.05;15.35;;;;;;;;;;5004473;28;20488;-50
2024/01/22 12:02:39;;;;;;;22.90;15.65;;;;;;;;;;4989013;28;20107;-54
2024/01/22 12:05:08;;;;;;;25.02;15.48;;;;;;;;;;5027363;28;20491;-50
2024/01/22 12:07:38;;;;;;;28.73;17.48;;;;;;;;;;5019560;28;20049;-50
2024/01/22 12:10:05;;;;;;;23.25;15.77;;;;;;;;;;5014803;28;20022;-53
2024/01/22 12:12:31;;;;;;;22.85;16.63;;;;;;;;;;5013741;28;20037;-51
2024/01/22 12:14:58;;;;;;;26.73;19.20;;;;;;;;;;5013796;28;20046;-50
2024/01/22 12:17:25;;;;;;;23.33;16.48;;;;;;;;;;5021073;28;20072;-54
2024/01/22 12:19:54;;;;;;;23.55;16.95;;;;;;;;;;5011115;28;20480;-53
2024/01/22 12:22:22;;;;;;;24.02;15.73;;;;;;;;;;4998425;28;20029;-50
2024/01/22 12:25:03;;;;;;;25.83;15.85;;;;;;;;;;5031303;28;20076;-51
2024/01/22 12:27:30;;;;;;;24.23;15.20;;;;;;;;;;5014753;28;20044;-51
2024/01/22 12:30:04;;;;;;;22.30;16.98;;;;;;;;;;5032336;28;20021;-51
2024/01/22 12:32:30;;;;;;;23.75;16.95;;;;;;;;;;5024971;28;20033;-56
2024/01/22 12:35:00;;;;;;;23.80;16.73;;;;;;;;;;5013603;28;20138;-52
2024/01/22 12:37:30;;;;;;;27.10;16.98;;;;;;;;;;5013652;28;20729;-52
2024/01/22 12:40:14;;;;;;;21.45;16.08;;;;;;;;;;5012323;28;20136;-50
2024/01/22 12:42:44;;;;;;;21.65;15.27;;;;;;;;;;5012622;28;20022;-50
2024/01/22 12:45:16;;;;;;;39.03;26.10;;;;;;;;;;5015651;28;20032;-51
2024/01/22 12:47:43;;;;;;;49.90;42.92;;;;;;;;;;5045587;28;20116;-51
2024/01/22 12:50:09;;;;;;;21.55;15.60;;;;;;;;;;5033479;28;20069;-56
2024/01/22 12:52:36;;;;;;;21.02;14.75;;;;;;;;;;5046895;28;20045;-50
2024/01/22 12:55:02;;;;;;;21.37;16.23;;;;;;;;;;5049546;28;20293;-50
2024/01/22 12:57:31;;;;;;;21.07;14.77;;;;;;;;;;5051974;28;20322;-50
2024/01/22 12:59:57;;;;;;;24.25;15.93;;;;;;;;;;5051545;28;20029;-54
2024/01/22 13:02:24;;;;;;;22.77;15.68;;;;;;;;;;5051648;28;20116;-51
2024/01/22 13:04:50;;;;;;;23.15;16.63;;;;;;;;;;5047018;28;20341;-51
2024/01/22 13:07:16;;;;;;;19.40;15.15;;;;;;;;;;5031739;28;20029;-51
2024/01/22 13:09:43;;;;;;;19.25;14.77;;;;;;;;;;5038996;28;20036;-50
2024/01/22 13:12:09;;;;;;;23.05;15.32;;;;;;;;;;5051642;28;20395;-50
2024/01/22 13:14:35;;;;;;;19.27;15.00;;;;;;;;;;5045982;28;20159;-50
2024/01/22 13:17:04;;;;;;;20.35;14.70;;;;;;;;;;5045667;28;20036;-51
2024/01/22 13:19:31;;;;;;;22.98;16.65;;;;;;;;;;5043858;28;20030;-50
2024/01/22 13:21:58;;;;;;;18.48;14.77;;;;;;;;;;5031565;28;20108;-50
2024/01/22 13:24:25;;;;;;;22.45;16.33;;;;;;;;;;5030080;28;20034;-53
2024/01/22 13:26:51;;;;;;;21.70;16.73;;;;;;;;;;5040581;28;20056;-54
2024/01/22 13:29:17;;;;;;;21.38;15.50;;;;;;;;;;5051055;28;20495;-55
2024/01/22 13:31:44;;;;;;;18.85;14.13;;;;;;;;;;5037506;28;20525;-53
2024/01/22 13:34:10;;;;;;;22.57;16.23;;;;;;;;;;5039265;28;20033;-50
2024/01/22 13:36:36;;;;;;;18.83;15.40;;;;;;;;;;5044463;28;20032;-50
2024/01/22 13:39:03;;;;;;;23.77;15.32;;;;;;;;;;5031040;28;20028;-50
2024/01/22 13:41:29;;;;;;;19.23;13.57;;;;;;;;;;5031047;28;20034;-50
2024/01/22 13:43:56;;;;;;;19.13;13.63;;;;;;;;;;5041875;28;20405;-52
2024/01/22 13:46:23;;;;;;;19.35;14.95;;;;;;;;;;5037466;28;20017;-50
2024/01/22 13:48:49;;;;;;;18.53;14.60;;;;;;;;;;5038115;28;20028;-50
2024/01/22 13:51:16;;;;;;;20.45;14.93;;;;;;;;;;5030596;28;20292;-50
2024/01/22 13:53:45;;;;;;;18.58;13.93;;;;;;;;;;5034209;28;20033;-55
2024/01/22 13:56:15;;;;;;;19.05;13.75;;;;;;;;;;5040390;28;20498;-50
2024/01/22 13:58:42;;;;;;;17.30;13.27;;;;;;;;;;5029729;28;20043;-49
2024/01/22 14:01:08;;;;;;;;;;;;;;;;;;5047935;28;20028;-54
2024/01/22 14:03:34;;;;;;;20.75;15.00;;;;;;;;;;5050858;28;20283;-53
2024/01/22 14:06:01;;;;;;;20.27;14.18;;;;;;;;;;5050643;28;20036;-53
2024/01/22 14:08:27;;;;;;;20.45;13.27;;;;;;;;;;5050493;28;20099;-49
2024/01/22 14:10:54;;;;;;;16.83;13.77;;;;;;;;;;5048392;28;20024;-50
2024/01/22 14:13:20;;;;;;;16.90;13.57;;;;;;;;;;5050325;28;20029;-50
2024/01/22 14:15:47;;;;;;;20.88;14.90;;;;;;;;;;5043406;28;20029;-52
2024/01/22 14:18:15;;;;;;;22.38;14.32;;;;;;;;;;5030265;28;20071;-52